TSJ weather

Tsushima Airport
Tsushima, Nagasaki Prefecture, Japan

Public forecast

Using degrees Celsius for public forecast. Weather courtesy of forecast.io.

Current aviation weather report (METAR) for Tsushima Airport

Retrieved 2019/10/21 06:00 UTC (6 minutes ago):

RJDT 210600Z 04009G19KT 350V100 9999 FEW025 BKN035 21/11 Q1014

Closest aviation forecast (TAF) to Tsushima Airport

Closest forecast is Gimhae International Airport, 57.1 nm (105.8 km) NNW. Retrieved 2019/10/21 06:00 UTC (6 minutes ago):

TAF RKPK 210500Z 2106/2212 05010KT 9999 SCT030 SCT200 TN11/2120Z TX23/2206Z BECMG 2109/2110 36006KT BECMG 2200/2201 05010KT